sensor_id;sensor_type;location;lat;lon;timestamp;pressure;altitude;pressure_sealevel;temperature
15079;BMP180;6932;51.438;5.470;2023-06-14T00:02:09;101088.00;;;26.30
15079;BMP180;6932;51.438;5.470;2023-06-14T00:04:35;101099.00;;;26.20
15079;BMP180;6932;51.438;5.470;2023-06-14T00:07:03;101096.00;;;26.20
15079;BMP180;6932;51.438;5.470;2023-06-14T00:09:29;101090.00;;;26.10
15079;BMP180;6932;51.438;5.470;2023-06-14T00:11:54;101092.00;;;26.10
15079;BMP180;6932;51.438;5.470;2023-06-14T00:14:20;101088.00;;;26.00
15079;BMP180;6932;51.438;5.470;2023-06-14T00:16:46;101089.00;;;26.00
15079;BMP180;6932;51.438;5.470;2023-06-14T00:19:13;101092.00;;;26.00
15079;BMP180;6932;51.438;5.470;2023-06-14T00:21:39;101095.00;;;25.90
15079;BMP180;6932;51.438;5.470;2023-06-14T00:24:05;101091.00;;;25.90
15079;BMP180;6932;51.438;5.470;2023-06-14T00:26:31;101096.00;;;25.90
15079;BMP180;6932;51.438;5.470;2023-06-14T00:28:56;101101.00;;;25.90
15079;BMP180;6932;51.438;5.470;2023-06-14T00:31:23;101104.00;;;25.80
15079;BMP180;6932;51.438;5.470;2023-06-14T00:33:49;101111.00;;;25.80
15079;BMP180;6932;51.438;5.470;2023-06-14T00:36:14;101101.00;;;25.80
15079;BMP180;6932;51.438;5.470;2023-06-14T00:38:40;101104.00;;;25.70
15079;BMP180;6932;51.438;5.470;2023-06-14T00:41:06;101091.00;;;25.70
15079;BMP180;6932;51.438;5.470;2023-06-14T00:43:32;101101.00;;;25.70
15079;BMP180;6932;51.438;5.470;2023-06-14T00:45:58;101103.00;;;25.60
15079;BMP180;6932;51.438;5.470;2023-06-14T00:48:24;101100.00;;;25.60
15079;BMP180;6932;51.438;5.470;2023-06-14T00:50:51;101101.00;;;25.50
15079;BMP180;6932;51.438;5.470;2023-06-14T00:53:19;101102.00;;;25.50
15079;BMP180;6932;51.438;5.470;2023-06-14T00:55:46;101100.00;;;25.50
15079;BMP180;6932;51.438;5.470;2023-06-14T00:58:13;101103.00;;;25.40
15079;BMP180;6932;51.438;5.470;2023-06-14T01:00:39;101106.00;;;25.40
15079;BMP180;6932;51.438;5.470;2023-06-14T01:03:05;101109.00;;;25.40
15079;BMP180;6932;51.438;5.470;2023-06-14T01:05:32;101104.00;;;25.30
15079;BMP180;6932;51.438;5.470;2023-06-14T01:08:31;101108.00;;;25.30
15079;BMP180;6932;51.438;5.470;2023-06-14T01:11:12;101096.00;;;25.20
15079;BMP180;6932;51.438;5.470;2023-06-14T01:13:43;101103.00;;;25.20
15079;BMP180;6932;51.438;5.470;2023-06-14T01:16:12;101099.00;;;25.10
15079;BMP180;6932;51.438;5.470;2023-06-14T01:18:38;101105.00;;;25.10
15079;BMP180;6932;51.438;5.470;2023-06-14T01:21:04;101109.00;;;25.10
15079;BMP180;6932;51.438;5.470;2023-06-14T01:23:31;101094.00;;;25.00
15079;BMP180;6932;51.438;5.470;2023-06-14T01:26:01;101111.00;;;25.00
15079;BMP180;6932;51.438;5.470;2023-06-14T01:28:29;101101.00;;;25.00
15079;BMP180;6932;51.438;5.470;2023-06-14T01:31:02;101111.00;;;24.90
15079;BMP180;6932;51.438;5.470;2023-06-14T01:33:33;101102.00;;;24.90
15079;BMP180;6932;51.438;5.470;2023-06-14T01:36:00;101100.00;;;24.90
15079;BMP180;6932;51.438;5.470;2023-06-14T01:38:27;101104.00;;;24.80
15079;BMP180;6932;51.438;5.470;2023-06-14T01:40:56;101100.00;;;24.80
15079;BMP180;6932;51.438;5.470;2023-06-14T01:43:24;101100.00;;;24.80
15079;BMP180;6932;51.438;5.470;2023-06-14T01:45:53;101099.00;;;24.70
15079;BMP180;6932;51.438;5.470;2023-06-14T01:48:20;101101.00;;;24.70
15079;BMP180;6932;51.438;5.470;2023-06-14T01:50:49;101099.00;;;24.70
15079;BMP180;6932;51.438;5.470;2023-06-14T01:53:15;101099.00;;;24.60
15079;BMP180;6932;51.438;5.470;2023-06-14T01:55:41;101096.00;;;24.60
15079;BMP180;6932;51.438;5.470;2023-06-14T01:58:10;101087.00;;;24.60
15079;BMP180;6932;51.438;5.470;2023-06-14T02:00:36;101095.00;;;24.50
15079;BMP180;6932;51.438;5.470;2023-06-14T02:03:02;101094.00;;;24.50
15079;BMP180;6932;51.438;5.470;2023-06-14T02:05:31;101102.00;;;24.50
15079;BMP180;6932;51.438;5.470;2023-06-14T02:07:56;101095.00;;;24.40
15079;BMP180;6932;51.438;5.470;2023-06-14T02:10:23;101099.00;;;24.40
15079;BMP180;6932;51.438;5.470;2023-06-14T02:12:48;101107.00;;;24.40
15079;BMP180;6932;51.438;5.470;2023-06-14T02:15:15;101104.00;;;24.30
15079;BMP180;6932;51.438;5.470;2023-06-14T02:17:46;101103.00;;;24.30
15079;BMP180;6932;51.438;5.470;2023-06-14T02:20:15;101102.00;;;24.30
15079;BMP180;6932;51.438;5.470;2023-06-14T02:22:41;101104.00;;;24.30
15079;BMP180;6932;51.438;5.470;2023-06-14T02:25:08;101099.00;;;24.20
15079;BMP180;6932;51.438;5.470;2023-06-14T02:27:34;101096.00;;;24.20
15079;BMP180;6932;51.438;5.470;2023-06-14T02:30:00;101114.00;;;24.20
15079;BMP180;6932;51.438;5.470;2023-06-14T02:32:26;101111.00;;;24.10
15079;BMP180;6932;51.438;5.470;2023-06-14T02:34:53;101112.00;;;24.10
15079;BMP180;6932;51.438;5.470;2023-06-14T02:37:20;101114.00;;;24.10
15079;BMP180;6932;51.438;5.470;2023-06-14T02:39:46;101101.00;;;24.10
15079;BMP180;6932;51.438;5.470;2023-06-14T02:42:12;101113.00;;;24.00
15079;BMP180;6932;51.438;5.470;2023-06-14T02:44:37;101104.00;;;24.00
15079;BMP180;6932;51.438;5.470;2023-06-14T02:47:04;101117.00;;;24.00
15079;BMP180;6932;51.438;5.470;2023-06-14T02:49:30;101108.00;;;23.90
15079;BMP180;6932;51.438;5.470;2023-06-14T02:51:56;101108.00;;;23.90
15079;BMP180;6932;51.438;5.470;2023-06-14T02:54:22;101111.00;;;23.90
15079;BMP180;6932;51.438;5.470;2023-06-14T02:56:48;101117.00;;;23.90
15079;BMP180;6932;51.438;5.470;2023-06-14T02:59:13;101104.00;;;23.80
15079;BMP180;6932;51.438;5.470;2023-06-14T03:01:40;101123.00;;;23.80
15079;BMP180;6932;51.438;5.470;2023-06-14T03:04:10;101114.00;;;23.80
15079;BMP180;6932;51.438;5.470;2023-06-14T03:06:36;101118.00;;;23.80
15079;BMP180;6932;51.438;5.470;2023-06-14T03:09:03;101126.00;;;23.70
15079;BMP180;6932;51.438;5.470;2023-06-14T03:11:32;101133.00;;;23.70
15079;BMP180;6932;51.438;5.470;2023-06-14T03:13:59;101130.00;;;23.70
15079;BMP180;6932;51.438;5.470;2023-06-14T03:16:25;101130.00;;;23.70
15079;BMP180;6932;51.438;5.470;2023-06-14T03:18:54;101135.00;;;23.60
15079;BMP180;6932;51.438;5.470;2023-06-14T03:21:20;101129.00;;;23.60
15079;BMP180;6932;51.438;5.470;2023-06-14T03:23:47;101127.00;;;23.60
15079;BMP180;6932;51.438;5.470;2023-06-14T03:26:13;101133.00;;;23.60
15079;BMP180;6932;51.438;5.470;2023-06-14T03:28:47;101130.00;;;23.50
15079;BMP180;6932;51.438;5.470;2023-06-14T03:31:15;101131.00;;;23.50
15079;BMP180;6932;51.438;5.470;2023-06-14T03:33:41;101142.00;;;23.50
15079;BMP180;6932;51.438;5.470;2023-06-14T03:36:07;101144.00;;;23.50
15079;BMP180;6932;51.438;5.470;2023-06-14T03:38:34;101135.00;;;23.50
15079;BMP180;6932;51.438;5.470;2023-06-14T03:41:00;101140.00;;;23.50
15079;BMP180;6932;51.438;5.470;2023-06-14T03:43:25;101140.00;;;23.50
15079;BMP180;6932;51.438;5.470;2023-06-14T03:45:51;101140.00;;;23.50
15079;BMP180;6932;51.438;5.470;2023-06-14T03:48:17;101141.00;;;23.50
15079;BMP180;6932;51.438;5.470;2023-06-14T03:50:43;101144.00;;;23.40
15079;BMP180;6932;51.438;5.470;2023-06-14T03:53:10;101136.00;;;23.40
15079;BMP180;6932;51.438;5.470;2023-06-14T03:55:36;101144.00;;;23.40
15079;BMP180;6932;51.438;5.470;2023-06-14T03:58:03;101144.00;;;23.40
15079;BMP180;6932;51.438;5.470;2023-06-14T04:00:29;101142.00;;;23.40
15079;BMP180;6932;51.438;5.470;2023-06-14T04:02:55;101146.00;;;23.40
15079;BMP180;6932;51.438;5.470;2023-06-14T04:05:21;101150.00;;;23.40
15079;BMP180;6932;51.438;5.470;2023-06-14T04:07:47;101146.00;;;23.40
15079;BMP180;6932;51.438;5.470;2023-06-14T04:10:15;101140.00;;;23.40
15079;BMP180;6932;51.438;5.470;2023-06-14T04:12:42;101141.00;;;23.40
15079;BMP180;6932;51.438;5.470;2023-06-14T04:15:09;101146.00;;;23.50
15079;BMP180;6932;51.438;5.470;2023-06-14T04:17:36;101153.00;;;23.50
15079;BMP180;6932;51.438;5.470;2023-06-14T04:20:03;101151.00;;;23.50
15079;BMP180;6932;51.438;5.470;2023-06-14T04:22:31;101160.00;;;23.50
15079;BMP180;6932;51.438;5.470;2023-06-14T04:24:57;101151.00;;;23.50
15079;BMP180;6932;51.438;5.470;2023-06-14T04:27:26;101157.00;;;23.60
15079;BMP180;6932;51.438;5.470;2023-06-14T04:29:53;101163.00;;;23.60
15079;BMP180;6932;51.438;5.470;2023-06-14T04:32:29;101157.00;;;23.60
15079;BMP180;6932;51.438;5.470;2023-06-14T04:35:08;101153.00;;;23.60
15079;BMP180;6932;51.438;5.470;2023-06-14T04:37:34;101166.00;;;23.60
15079;BMP180;6932;51.438;5.470;2023-06-14T04:40:00;101161.00;;;23.70
15079;BMP180;6932;51.438;5.470;2023-06-14T04:42:26;101159.00;;;23.70
15079;BMP180;6932;51.438;5.470;2023-06-14T04:44:57;101165.00;;;23.70
15079;BMP180;6932;51.438;5.470;2023-06-14T04:47:23;101160.00;;;23.80
15079;BMP180;6932;51.438;5.470;2023-06-14T04:49:51;101166.00;;;23.80
15079;BMP180;6932;51.438;5.470;2023-06-14T04:52:17;101162.00;;;23.80
15079;BMP180;6932;51.438;5.470;2023-06-14T04:54:47;101170.00;;;23.90
15079;BMP180;6932;51.438;5.470;2023-06-14T04:57:12;101169.00;;;23.90
15079;BMP180;6932;51.438;5.470;2023-06-14T04:59:40;101174.00;;;24.00
15079;BMP180;6932;51.438;5.470;2023-06-14T05:02:06;101175.00;;;24.00
15079;BMP180;6932;51.438;5.470;2023-06-14T05:04:32;101168.00;;;24.00
15079;BMP180;6932;51.438;5.470;2023-06-14T05:06:59;101167.00;;;24.10
15079;BMP180;6932;51.438;5.470;2023-06-14T05:09:25;101170.00;;;24.10
15079;BMP180;6932;51.438;5.470;2023-06-14T05:11:50;101172.00;;;24.20
15079;BMP180;6932;51.438;5.470;2023-06-14T05:14:16;101173.00;;;24.20
15079;BMP180;6932;51.438;5.470;2023-06-14T05:16:43;101171.00;;;24.30
15079;BMP180;6932;51.438;5.470;2023-06-14T05:19:09;101179.00;;;24.30
15079;BMP180;6932;51.438;5.470;2023-06-14T05:21:37;101180.00;;;24.40
15079;BMP180;6932;51.438;5.470;2023-06-14T05:24:03;101185.00;;;24.40
15079;BMP180;6932;51.438;5.470;2023-06-14T05:26:28;101187.00;;;24.40
15079;BMP180;6932;51.438;5.470;2023-06-14T05:28:56;101188.00;;;24.50
15079;BMP180;6932;51.438;5.470;2023-06-14T05:31:24;101173.00;;;24.50
15079;BMP180;6932;51.438;5.470;2023-06-14T05:33:50;101188.00;;;24.60
15079;BMP180;6932;51.438;5.470;2023-06-14T05:36:16;101184.00;;;24.70
15079;BMP180;6932;51.438;5.470;2023-06-14T05:38:42;101176.00;;;24.70
15079;BMP180;6932;51.438;5.470;2023-06-14T05:41:07;101185.00;;;24.80
15079;BMP180;6932;51.438;5.470;2023-06-14T05:43:33;101193.00;;;24.90
15079;BMP180;6932;51.438;5.470;2023-06-14T05:45:59;101192.00;;;25.00
15079;BMP180;6932;51.438;5.470;2023-06-14T05:48:24;101201.00;;;25.00
15079;BMP180;6932;51.438;5.470;2023-06-14T05:50:50;101196.00;;;25.10
15079;BMP180;6932;51.438;5.470;2023-06-14T05:53:16;101196.00;;;25.20
15079;BMP180;6932;51.438;5.470;2023-06-14T05:55:42;101201.00;;;25.20
15079;BMP180;6932;51.438;5.470;2023-06-14T05:58:07;101202.00;;;25.30
15079;BMP180;6932;51.438;5.470;2023-06-14T06:00:33;101201.00;;;25.40
15079;BMP180;6932;51.438;5.470;2023-06-14T06:02:59;101207.00;;;25.50
15079;BMP180;6932;51.438;5.470;2023-06-14T06:05:26;101213.00;;;25.60
15079;BMP180;6932;51.438;5.470;2023-06-14T06:07:52;101212.00;;;25.70
15079;BMP180;6932;51.438;5.470;2023-06-14T06:10:18;101219.00;;;25.80
15079;BMP180;6932;51.438;5.470;2023-06-14T06:12:43;101202.00;;;25.90
15079;BMP180;6932;51.438;5.470;2023-06-14T06:15:10;101209.00;;;26.00
15079;BMP180;6932;51.438;5.470;2023-06-14T06:17:39;101211.00;;;26.10
15079;BMP180;6932;51.438;5.470;2023-06-14T06:20:06;101213.00;;;26.20
15079;BMP180;6932;51.438;5.470;2023-06-14T06:22:34;101212.00;;;26.20
15079;BMP180;6932;51.438;5.470;2023-06-14T06:25:00;101227.00;;;26.30
15079;BMP180;6932;51.438;5.470;2023-06-14T06:27:26;101221.00;;;26.40
15079;BMP180;6932;51.438;5.470;2023-06-14T06:29:51;101229.00;;;26.40
15079;BMP180;6932;51.438;5.470;2023-06-14T06:32:17;101222.00;;;26.50
15079;BMP180;6932;51.438;5.470;2023-06-14T06:34:43;101223.00;;;26.60
15079;BMP180;6932;51.438;5.470;2023-06-14T06:37:09;101230.00;;;26.70
15079;BMP180;6932;51.438;5.470;2023-06-14T06:39:35;101238.00;;;26.70
15079;BMP180;6932;51.438;5.470;2023-06-14T06:42:01;101238.00;;;26.80
15079;BMP180;6932;51.438;5.470;2023-06-14T06:44:26;101242.00;;;26.90
15079;BMP180;6932;51.438;5.470;2023-06-14T06:46:52;101256.00;;;27.00
15079;BMP180;6932;51.438;5.470;2023-06-14T06:49:18;101252.00;;;27.00
15079;BMP180;6932;51.438;5.470;2023-06-14T06:52:06;101249.00;;;27.10
15079;BMP180;6932;51.438;5.470;2023-06-14T06:54:33;101257.00;;;27.10
15079;BMP180;6932;51.438;5.470;2023-06-14T06:57:00;101253.00;;;27.20
15079;BMP180;6932;51.438;5.470;2023-06-14T06:59:29;101262.00;;;27.20
15079;BMP180;6932;51.438;5.470;2023-06-14T07:01:55;101259.00;;;27.30
15079;BMP180;6932;51.438;5.470;2023-06-14T07:04:21;101263.00;;;27.40
15079;BMP180;6932;51.438;5.470;2023-06-14T07:06:47;101259.00;;;27.40
15079;BMP180;6932;51.438;5.470;2023-06-14T07:09:13;101270.00;;;27.40
15079;BMP180;6932;51.438;5.470;2023-06-14T07:11:40;101277.00;;;27.50
15079;BMP180;6932;51.438;5.470;2023-06-14T07:14:06;101273.00;;;27.50
15079;BMP180;6932;51.438;5.470;2023-06-14T07:16:32;101271.00;;;27.50
15079;BMP180;6932;51.438;5.470;2023-06-14T07:18:58;101280.00;;;27.60
15079;BMP180;6932;51.438;5.470;2023-06-14T07:21:24;101274.00;;;27.60
15079;BMP180;6932;51.438;5.470;2023-06-14T07:23:53;101275.00;;;27.70
15079;BMP180;6932;51.438;5.470;2023-06-14T07:26:20;101282.00;;;27.80
15079;BMP180;6932;51.438;5.470;2023-06-14T07:28:47;101289.00;;;27.90
15079;BMP180;6932;51.438;5.470;2023-06-14T07:31:17;101276.00;;;28.00
15079;BMP180;6932;51.438;5.470;2023-06-14T07:33:45;101292.00;;;28.00
15079;BMP180;6932;51.438;5.470;2023-06-14T07:36:11;101285.00;;;28.10
15079;BMP180;6932;51.438;5.470;2023-06-14T07:38:37;101295.00;;;28.30
15079;BMP180;6932;51.438;5.470;2023-06-14T07:41:03;101290.00;;;28.40
15079;BMP180;6932;51.438;5.470;2023-06-14T07:43:28;101293.00;;;28.40
15079;BMP180;6932;51.438;5.470;2023-06-14T07:45:55;101298.00;;;28.50
15079;BMP180;6932;51.438;5.470;2023-06-14T07:48:22;101303.00;;;28.60
15079;BMP180;6932;51.438;5.470;2023-06-14T07:50:48;101299.00;;;28.60
15079;BMP180;6932;51.438;5.470;2023-06-14T07:53:13;101295.00;;;28.70
15079;BMP180;6932;51.438;5.470;2023-06-14T07:55:39;101298.00;;;28.80
15079;BMP180;6932;51.438;5.470;2023-06-14T07:58:07;101302.00;;;28.90
15079;BMP180;6932;51.438;5.470;2023-06-14T08:00:33;101319.00;;;29.00
15079;BMP180;6932;51.438;5.470;2023-06-14T08:02:59;101310.00;;;29.10
15079;BMP180;6932;51.438;5.470;2023-06-14T08:05:25;101313.00;;;29.20
15079;BMP180;6932;51.438;5.470;2023-06-14T08:07:52;101315.00;;;29.30
15079;BMP180;6932;51.438;5.470;2023-06-14T08:10:18;101309.00;;;29.40
15079;BMP180;6932;51.438;5.470;2023-06-14T08:12:44;101319.00;;;29.50
15079;BMP180;6932;51.438;5.470;2023-06-14T08:15:10;101325.00;;;29.60
15079;BMP180;6932;51.438;5.470;2023-06-14T08:17:36;101312.00;;;29.70
15079;BMP180;6932;51.438;5.470;2023-06-14T08:20:03;101311.00;;;29.70
15079;BMP180;6932;51.438;5.470;2023-06-14T08:22:32;101307.00;;;29.70
15079;BMP180;6932;51.438;5.470;2023-06-14T08:25:01;101302.00;;;29.70
15079;BMP180;6932;51.438;5.470;2023-06-14T08:27:27;101308.00;;;29.80
15079;BMP180;6932;51.438;5.470;2023-06-14T08:29:53;101305.00;;;29.80
15079;BMP180;6932;51.438;5.470;2023-06-14T08:32:19;101311.00;;;29.90
15079;BMP180;6932;51.438;5.470;2023-06-14T08:34:45;101318.00;;;30.00
15079;BMP180;6932;51.438;5.470;2023-06-14T08:37:11;101302.00;;;30.00
15079;BMP180;6932;51.438;5.470;2023-06-14T08:39:37;101311.00;;;30.10
15079;BMP180;6932;51.438;5.470;2023-06-14T08:42:03;101296.00;;;30.10
15079;BMP180;6932;51.438;5.470;2023-06-14T08:44:31;101321.00;;;30.20
15079;BMP180;6932;51.438;5.470;2023-06-14T08:46:59;101311.00;;;30.20
15079;BMP180;6932;51.438;5.470;2023-06-14T08:49:26;101329.00;;;30.20
15079;BMP180;6932;51.438;5.470;2023-06-14T08:52:00;101313.00;;;30.20
15079;BMP180;6932;51.438;5.470;2023-06-14T08:54:28;101306.00;;;30.10
15079;BMP180;6932;51.438;5.470;2023-06-14T08:57:00;101301.00;;;30.10
15079;BMP180;6932;51.438;5.470;2023-06-14T08:59:26;101310.00;;;30.00
15079;BMP180;6932;51.438;5.470;2023-06-14T09:01:53;101308.00;;;30.10
15079;BMP180;6932;51.438;5.470;2023-06-14T09:04:21;101317.00;;;30.10
15079;BMP180;6932;51.438;5.470;2023-06-14T09:06:56;101306.00;;;30.10
15079;BMP180;6932;51.438;5.470;2023-06-14T09:09:22;101306.00;;;30.10
15079;BMP180;6932;51.438;5.470;2023-06-14T09:11:50;101304.00;;;30.20
15079;BMP180;6932;51.438;5.470;2023-06-14T09:14:19;101319.00;;;30.20
15079;BMP180;6932;51.438;5.470;2023-06-14T09:16:45;101329.00;;;30.20
15079;BMP180;6932;51.438;5.470;2023-06-14T09:19:24;101292.00;;;30.20
15079;BMP180;6932;51.438;5.470;2023-06-14T09:21:50;101314.00;;;30.20
15079;BMP180;6932;51.438;5.470;2023-06-14T09:24:19;101313.00;;;30.30
15079;BMP180;6932;51.438;5.470;2023-06-14T09:26:47;101324.00;;;30.30
15079;BMP180;6932;51.438;5.470;2023-06-14T09:29:13;101326.00;;;30.40
15079;BMP180;6932;51.438;5.470;2023-06-14T09:31:39;101316.00;;;30.40
15079;BMP180;6932;51.438;5.470;2023-06-14T09:34:05;101305.00;;;30.40
15079;BMP180;6932;51.438;5.470;2023-06-14T09:36:32;101307.00;;;30.40
15079;BMP180;6932;51.438;5.470;2023-06-14T09:39:00;101340.00;;;30.50
15079;BMP180;6932;51.438;5.470;2023-06-14T09:41:41;101316.00;;;30.50
15079;BMP180;6932;51.438;5.470;2023-06-14T09:44:10;101315.00;;;30.60
15079;BMP180;6932;51.438;5.470;2023-06-14T09:46:37;101312.00;;;30.60
15079;BMP180;6932;51.438;5.470;2023-06-14T09:49:05;101350.00;;;30.70
15079;BMP180;6932;51.438;5.470;2023-06-14T09:51:31;101318.00;;;30.70
15079;BMP180;6932;51.438;5.470;2023-06-14T09:54:02;101322.00;;;30.80
15079;BMP180;6932;51.438;5.470;2023-06-14T09:56:35;101318.00;;;30.80
15079;BMP180;6932;51.438;5.470;2023-06-14T09:59:05;101334.00;;;30.80
15079;BMP180;6932;51.438;5.470;2023-06-14T10:01:34;101331.00;;;30.70
15079;BMP180;6932;51.438;5.470;2023-06-14T10:04:05;101318.00;;;30.70
15079;BMP180;6932;51.438;5.470;2023-06-14T10:06:36;101318.00;;;30.70
15079;BMP180;6932;51.438;5.470;2023-06-14T10:09:04;101324.00;;;30.60
15079;BMP180;6932;51.438;5.470;2023-06-14T10:11:32;101325.00;;;30.60
15079;BMP180;6932;51.438;5.470;2023-06-14T10:14:04;101318.00;;;30.60
15079;BMP180;6932;51.438;5.470;2023-06-14T10:16:45;101317.00;;;30.60
15079;BMP180;6932;51.438;5.470;2023-06-14T10:19:34;101308.00;;;30.60
15079;BMP180;6932;51.438;5.470;2023-06-14T10:22:17;101309.00;;;30.60
15079;BMP180;6932;51.438;5.470;2023-06-14T10:24:45;101319.00;;;30.60
15079;BMP180;6932;51.438;5.470;2023-06-14T10:27:15;101314.00;;;30.70
15079;BMP180;6932;51.438;5.470;2023-06-14T10:32:24;101315.00;;;30.70
15079;BMP180;6932;51.438;5.470;2023-06-14T10:34:59;101307.00;;;30.70
15079;BMP180;6932;51.438;5.470;2023-06-14T10:37:25;101317.00;;;30.70
15079;BMP180;6932;51.438;5.470;2023-06-14T10:39:51;101305.00;;;30.70
15079;BMP180;6932;51.438;5.470;2023-06-14T10:42:19;101306.00;;;30.70
15079;BMP180;6932;51.438;5.470;2023-06-14T10:44:52;101313.00;;;30.70
15079;BMP180;6932;51.438;5.470;2023-06-14T10:47:36;101318.00;;;30.70
15079;BMP180;6932;51.438;5.470;2023-06-14T10:50:11;101311.00;;;30.70
15079;BMP180;6932;51.438;5.470;2023-06-14T10:52:42;101320.00;;;30.70
15079;BMP180;6932;51.438;5.470;2023-06-14T10:55:18;101307.00;;;30.70
15079;BMP180;6932;51.438;5.470;2023-06-14T10:57:55;101315.00;;;30.70
15079;BMP180;6932;51.438;5.470;2023-06-14T11:00:28;101327.00;;;30.70
15079;BMP180;6932;51.438;5.470;2023-06-14T11:05:29;101316.00;;;30.70
15079;BMP180;6932;51.438;5.470;2023-06-14T11:10:44;101318.00;;;30.70
15079;BMP180;6932;51.438;5.470;2023-06-14T11:13:12;101323.00;;;30.70
15079;BMP180;6932;51.438;5.470;2023-06-14T11:15:47;101332.00;;;30.70
15079;BMP180;6932;51.438;5.470;2023-06-14T11:18:14;101313.00;;;30.70
15079;BMP180;6932;51.438;5.470;2023-06-14T11:20:42;101312.00;;;30.60
15079;BMP180;6932;51.438;5.470;2023-06-14T11:23:08;101318.00;;;30.60
15079;BMP180;6932;51.438;5.470;2023-06-14T11:25:33;101315.00;;;30.60
15079;BMP180;6932;51.438;5.470;2023-06-14T11:27:59;101312.00;;;30.50
15079;BMP180;6932;51.438;5.470;2023-06-14T11:30:25;101312.00;;;30.50
15079;BMP180;6932;51.438;5.470;2023-06-14T11:32:53;101315.00;;;30.40
15079;BMP180;6932;51.438;5.470;2023-06-14T11:35:22;101314.00;;;30.50
15079;BMP180;6932;51.438;5.470;2023-06-14T11:37:55;101305.00;;;30.40
15079;BMP180;6932;51.438;5.470;2023-06-14T11:40:26;101308.00;;;30.40
15079;BMP180;6932;51.438;5.470;2023-06-14T11:43:00;101320.00;;;30.40
15079;BMP180;6932;51.438;5.470;2023-06-14T11:45:27;101317.00;;;30.40
15079;BMP180;6932;51.438;5.470;2023-06-14T11:47:56;101311.00;;;30.40
15079;BMP180;6932;51.438;5.470;2023-06-14T11:50:22;101305.00;;;30.30
15079;BMP180;6932;51.438;5.470;2023-06-14T11:52:56;101303.00;;;30.30
15079;BMP180;6932;51.438;5.470;2023-06-14T11:55:23;101297.00;;;30.30
15079;BMP180;6932;51.438;5.470;2023-06-14T11:57:49;101299.00;;;30.30
15079;BMP180;6932;51.438;5.470;2023-06-14T12:00:16;101311.00;;;30.30
15079;BMP180;6932;51.438;5.470;2023-06-14T12:02:52;101310.00;;;30.30
15079;BMP180;6932;51.438;5.470;2023-06-14T12:05:21;101302.00;;;30.30
15079;BMP180;6932;51.438;5.470;2023-06-14T12:07:47;101308.00;;;30.20
15079;BMP180;6932;51.438;5.470;2023-06-14T12:10:14;101309.00;;;30.20
15079;BMP180;6932;51.438;5.470;2023-06-14T12:12:41;101313.00;;;30.20
15079;BMP180;6932;51.438;5.470;2023-06-14T12:15:09;101308.00;;;30.10
15079;BMP180;6932;51.438;5.470;2023-06-14T12:17:38;101305.00;;;30.10
15079;BMP180;6932;51.438;5.470;2023-06-14T12:20:12;101305.00;;;30.00
15079;BMP180;6932;51.438;5.470;2023-06-14T12:22:52;101299.00;;;30.00
15079;BMP180;6932;51.438;5.470;2023-06-14T12:25:35;101306.00;;;30.00
15079;BMP180;6932;51.438;5.470;2023-06-14T12:28:09;101301.00;;;30.00
15079;BMP180;6932;51.438;5.470;2023-06-14T12:30:36;101300.00;;;29.90
15079;BMP180;6932;51.438;5.470;2023-06-14T12:33:05;101306.00;;;29.90
15079;BMP180;6932;51.438;5.470;2023-06-14T12:35:31;101297.00;;;29.90
15079;BMP180;6932;51.438;5.470;2023-06-14T12:37:57;101290.00;;;29.90
15079;BMP180;6932;51.438;5.470;2023-06-14T12:40:23;101318.00;;;30.00
15079;BMP180;6932;51.438;5.470;2023-06-14T12:42:49;101304.00;;;30.00
15079;BMP180;6932;51.438;5.470;2023-06-14T12:45:15;101308.00;;;30.00
15079;BMP180;6932;51.438;5.470;2023-06-14T12:47:41;101305.00;;;30.00
15079;BMP180;6932;51.438;5.470;2023-06-14T12:50:08;101317.00;;;30.00
15079;BMP180;6932;51.438;5.470;2023-06-14T12:52:33;101306.00;;;29.90
15079;BMP180;6932;51.438;5.470;2023-06-14T12:55:05;101307.00;;;29.90
15079;BMP180;6932;51.438;5.470;2023-06-14T12:57:32;101299.00;;;29.90
15079;BMP180;6932;51.438;5.470;2023-06-14T13:00:00;101311.00;;;29.90
15079;BMP180;6932;51.438;5.470;2023-06-14T13:02:26;101311.00;;;29.80
15079;BMP180;6932;51.438;5.470;2023-06-14T13:04:52;101312.00;;;29.80
15079;BMP180;6932;51.438;5.470;2023-06-14T13:07:18;101309.00;;;29.80
15079;BMP180;6932;51.438;5.470;2023-06-14T13:09:44;101315.00;;;29.80
15079;BMP180;6932;51.438;5.470;2023-06-14T13:12:11;101316.00;;;29.80
15079;BMP180;6932;51.438;5.470;2023-06-14T13:14:41;101312.00;;;29.80
15079;BMP180;6932;51.438;5.470;2023-06-14T13:17:10;101313.00;;;29.80
15079;BMP180;6932;51.438;5.470;2023-06-14T13:19:37;101311.00;;;29.80
15079;BMP180;6932;51.438;5.470;2023-06-14T13:22:03;101312.00;;;29.80
15079;BMP180;6932;51.438;5.470;2023-06-14T13:24:29;101305.00;;;29.80
15079;BMP180;6932;51.438;5.470;2023-06-14T13:26:56;101318.00;;;29.90
15079;BMP180;6932;51.438;5.470;2023-06-14T13:29:24;101303.00;;;29.90
15079;BMP180;6932;51.438;5.470;2023-06-14T13:31:50;101306.00;;;29.90
15079;BMP180;6932;51.438;5.470;2023-06-14T13:34:16;101312.00;;;29.90
15079;BMP180;6932;51.438;5.470;2023-06-14T13:36:42;101306.00;;;29.90
15079;BMP180;6932;51.438;5.470;2023-06-14T13:39:08;101308.00;;;29.90
15079;BMP180;6932;51.438;5.470;2023-06-14T13:41:33;101301.00;;;29.90
15079;BMP180;6932;51.438;5.470;2023-06-14T13:44:01;101298.00;;;29.90
15079;BMP180;6932;51.438;5.470;2023-06-14T13:46:30;101303.00;;;29.90
15079;BMP180;6932;51.438;5.470;2023-06-14T13:48:56;101303.00;;;29.80
15079;BMP180;6932;51.438;5.470;2023-06-14T13:51:23;101311.00;;;29.80
15079;BMP180;6932;51.438;5.470;2023-06-14T13:53:49;101317.00;;;29.80
15079;BMP180;6932;51.438;5.470;2023-06-14T13:56:16;101296.00;;;29.80
15079;BMP180;6932;51.438;5.470;2023-06-14T13:58:43;101297.00;;;29.80
15079;BMP180;6932;51.438;5.470;2023-06-14T14:01:09;101308.00;;;29.80
15079;BMP180;6932;51.438;5.470;2023-06-14T14:03:35;101298.00;;;29.80
15079;BMP180;6932;51.438;5.470;2023-06-14T14:06:04;101287.00;;;29.80
15079;BMP180;6932;51.438;5.470;2023-06-14T14:08:31;101289.00;;;29.70
15079;BMP180;6932;51.438;5.470;2023-06-14T14:10:57;101298.00;;;29.70
15079;BMP180;6932;51.438;5.470;2023-06-14T14:13:23;101279.00;;;29.80
15079;BMP180;6932;51.438;5.470;2023-06-14T14:15:48;101306.00;;;29.90
15079;BMP180;6932;51.438;5.470;2023-06-14T14:18:18;101300.00;;;29.90
15079;BMP180;6932;51.438;5.470;2023-06-14T14:20:44;101304.00;;;29.90